sensor_id;sensor_type;location;lat;lon;timestamp;P1;durP1;ratioP1;P2;durP2;ratioP2
58752;SDS011;44525;46.052;13.610;2023-11-19T00:01:51;14.83;;;8.53;;
58752;SDS011;44525;46.052;13.610;2023-11-19T00:04:16;16.10;;;8.10;;
58752;SDS011;44525;46.052;13.610;2023-11-19T00:06:41;17.88;;;9.35;;
58752;SDS011;44525;46.052;13.610;2023-11-19T00:09:07;12.70;;;7.68;;
58752;SDS011;44525;46.052;13.610;2023-11-19T00:11:33;16.00;;;8.32;;
58752;SDS011;44525;46.052;13.610;2023-11-19T00:13:58;16.65;;;8.05;;
58752;SDS011;44525;46.052;13.610;2023-11-19T00:16:23;14.87;;;8.00;;
58752;SDS011;44525;46.052;13.610;2023-11-19T00:18:48;15.48;;;8.07;;
58752;SDS011;44525;46.052;13.610;2023-11-19T00:21:14;18.63;;;9.38;;
58752;SDS011;44525;46.052;13.610;2023-11-19T00:23:40;13.98;;;8.30;;
58752;SDS011;44525;46.052;13.610;2023-11-19T00:26:05;15.05;;;8.45;;
58752;SDS011;44525;46.052;13.610;2023-11-19T00:28:31;15.15;;;7.63;;
58752;SDS011;44525;46.052;13.610;2023-11-19T00:30:56;14.02;;;7.95;;
58752;SDS011;44525;46.052;13.610;2023-11-19T00:33:22;10.93;;;6.47;;
58752;SDS011;44525;46.052;13.610;2023-11-19T00:35:47;16.15;;;9.10;;
58752;SDS011;44525;46.052;13.610;2023-11-19T00:38:13;14.48;;;8.75;;
58752;SDS011;44525;46.052;13.610;2023-11-19T00:40:38;18.65;;;10.55;;
58752;SDS011;44525;46.052;13.610;2023-11-19T00:43:04;21.93;;;10.77;;
58752;SDS011;44525;46.052;13.610;2023-11-19T00:45:29;16.67;;;9.60;;
58752;SDS011;44525;46.052;13.610;2023-11-19T00:47:54;18.25;;;9.35;;
58752;SDS011;44525;46.052;13.610;2023-11-19T00:50:19;11.93;;;6.82;;
58752;SDS011;44525;46.052;13.610;2023-11-19T00:52:45;11.00;;;6.60;;
58752;SDS011;44525;46.052;13.610;2023-11-19T00:55:10;12.82;;;7.55;;
58752;SDS011;44525;46.052;13.610;2023-11-19T00:57:36;12.27;;;6.43;;
58752;SDS011;44525;46.052;13.610;2023-11-19T01:00:02;11.65;;;6.93;;
58752;SDS011;44525;46.052;13.610;2023-11-19T01:02:34;11.50;;;6.18;;
58752;SDS011;44525;46.052;13.610;2023-11-19T01:04:59;12.43;;;6.43;;
58752;SDS011;44525;46.052;13.610;2023-11-19T01:07:25;12.07;;;6.80;;
58752;SDS011;44525;46.052;13.610;2023-11-19T01:09:51;13.20;;;7.47;;
58752;SDS011;44525;46.052;13.610;2023-11-19T01:12:16;11.77;;;7.53;;
58752;SDS011;44525;46.052;13.610;2023-11-19T01:14:41;14.70;;;8.00;;
58752;SDS011;44525;46.052;13.610;2023-11-19T01:17:07;12.32;;;6.15;;
58752;SDS011;44525;46.052;13.610;2023-11-19T01:19:32;12.00;;;6.88;;
58752;SDS011;44525;46.052;13.610;2023-11-19T01:21:57;15.82;;;6.65;;
58752;SDS011;44525;46.052;13.610;2023-11-19T01:24:22;10.05;;;6.22;;
58752;SDS011;44525;46.052;13.610;2023-11-19T01:26:48;9.47;;;5.53;;
58752;SDS011;44525;46.052;13.610;2023-11-19T01:29:14;10.00;;;6.53;;
58752;SDS011;44525;46.052;13.610;2023-11-19T01:31:42;11.00;;;5.80;;
58752;SDS011;44525;46.052;13.610;2023-11-19T01:34:08;14.85;;;6.68;;
58752;SDS011;44525;46.052;13.610;2023-11-19T01:36:33;10.35;;;5.45;;
58752;SDS011;44525;46.052;13.610;2023-11-19T01:38:59;9.52;;;5.55;;
58752;SDS011;44525;46.052;13.610;2023-11-19T01:41:24;16.55;;;7.82;;
58752;SDS011;44525;46.052;13.610;2023-11-19T01:43:50;17.65;;;8.23;;
58752;SDS011;44525;46.052;13.610;2023-11-19T01:46:15;15.15;;;7.63;;
58752;SDS011;44525;46.052;13.610;2023-11-19T01:48:41;14.60;;;7.07;;
58752;SDS011;44525;46.052;13.610;2023-11-19T01:51:07;11.88;;;6.75;;
58752;SDS011;44525;46.052;13.610;2023-11-19T01:53:33;14.25;;;7.10;;
58752;SDS011;44525;46.052;13.610;2023-11-19T01:55:59;10.70;;;6.18;;
58752;SDS011;44525;46.052;13.610;2023-11-19T01:58:25;13.55;;;6.10;;
58752;SDS011;44525;46.052;13.610;2023-11-19T02:00:50;12.02;;;5.53;;
58752;SDS011;44525;46.052;13.610;2023-11-19T02:03:16;11.07;;;5.85;;
58752;SDS011;44525;46.052;13.610;2023-11-19T02:05:41;8.30;;;5.05;;
58752;SDS011;44525;46.052;13.610;2023-11-19T02:08:06;8.80;;;4.82;;
58752;SDS011;44525;46.052;13.610;2023-11-19T02:10:32;10.18;;;4.80;;
58752;SDS011;44525;46.052;13.610;2023-11-19T02:12:57;8.18;;;4.75;;
58752;SDS011;44525;46.052;13.610;2023-11-19T02:15:23;8.27;;;4.50;;
58752;SDS011;44525;46.052;13.610;2023-11-19T02:17:49;11.75;;;5.43;;
58752;SDS011;44525;46.052;13.610;2023-11-19T02:20:15;12.20;;;5.53;;
58752;SDS011;44525;46.052;13.610;2023-11-19T02:22:40;10.40;;;5.90;;
58752;SDS011;44525;46.052;13.610;2023-11-19T02:25:12;8.85;;;5.28;;
58752;SDS011;44525;46.052;13.610;2023-11-19T02:27:54;10.07;;;5.03;;
58752;SDS011;44525;46.052;13.610;2023-11-19T02:30:20;9.77;;;4.72;;
58752;SDS011;44525;46.052;13.610;2023-11-19T02:32:46;11.57;;;5.57;;
58752;SDS011;44525;46.052;13.610;2023-11-19T02:35:11;8.60;;;5.18;;
58752;SDS011;44525;46.052;13.610;2023-11-19T02:37:37;10.50;;;5.25;;
58752;SDS011;44525;46.052;13.610;2023-11-19T02:40:03;8.77;;;5.15;;
58752;SDS011;44525;46.052;13.610;2023-11-19T02:42:29;7.93;;;4.85;;
58752;SDS011;44525;46.052;13.610;2023-11-19T02:44:54;8.63;;;4.40;;
58752;SDS011;44525;46.052;13.610;2023-11-19T02:47:19;7.85;;;4.60;;
58752;SDS011;44525;46.052;13.610;2023-11-19T02:49:46;10.32;;;4.63;;
58752;SDS011;44525;46.052;13.610;2023-11-19T02:52:11;8.50;;;4.82;;
58752;SDS011;44525;46.052;13.610;2023-11-19T02:54:36;6.75;;;4.13;;
58752;SDS011;44525;46.052;13.610;2023-11-19T02:57:02;7.47;;;4.30;;
58752;SDS011;44525;46.052;13.610;2023-11-19T02:59:29;7.65;;;4.72;;
58752;SDS011;44525;46.052;13.610;2023-11-19T03:02:03;9.65;;;4.78;;
58752;SDS011;44525;46.052;13.610;2023-11-19T03:04:29;10.70;;;4.95;;
58752;SDS011;44525;46.052;13.610;2023-11-19T03:06:54;8.68;;;4.57;;
58752;SDS011;44525;46.052;13.610;2023-11-19T03:09:20;8.95;;;5.05;;
58752;SDS011;44525;46.052;13.610;2023-11-19T03:11:45;8.25;;;5.03;;
58752;SDS011;44525;46.052;13.610;2023-11-19T03:14:10;8.35;;;4.93;;
58752;SDS011;44525;46.052;13.610;2023-11-19T03:16:36;7.55;;;4.35;;
58752;SDS011;44525;46.052;13.610;2023-11-19T03:19:01;6.80;;;4.13;;
58752;SDS011;44525;46.052;13.610;2023-11-19T03:21:27;6.97;;;4.38;;
58752;SDS011;44525;46.052;13.610;2023-11-19T03:23:52;10.38;;;4.38;;
58752;SDS011;44525;46.052;13.610;2023-11-19T03:26:17;9.77;;;4.85;;
58752;SDS011;44525;46.052;13.610;2023-11-19T03:28:43;7.37;;;4.07;;
58752;SDS011;44525;46.052;13.610;2023-11-19T03:31:08;7.55;;;4.45;;
58752;SDS011;44525;46.052;13.610;2023-11-19T03:33:33;8.10;;;5.03;;
58752;SDS011;44525;46.052;13.610;2023-11-19T03:35:58;9.40;;;4.85;;
58752;SDS011;44525;46.052;13.610;2023-11-19T03:38:24;9.48;;;4.88;;
58752;SDS011;44525;46.052;13.610;2023-11-19T03:40:49;8.95;;;5.07;;
58752;SDS011;44525;46.052;13.610;2023-11-19T03:43:15;8.00;;;4.43;;
58752;SDS011;44525;46.052;13.610;2023-11-19T03:45:40;9.18;;;5.20;;
58752;SDS011;44525;46.052;13.610;2023-11-19T03:48:06;11.63;;;5.03;;
58752;SDS011;44525;46.052;13.610;2023-11-19T03:50:31;11.30;;;5.43;;
58752;SDS011;44525;46.052;13.610;2023-11-19T03:52:56;8.32;;;5.07;;
58752;SDS011;44525;46.052;13.610;2023-11-19T03:55:21;7.88;;;4.60;;
58752;SDS011;44525;46.052;13.610;2023-11-19T03:57:47;7.65;;;4.15;;
58752;SDS011;44525;46.052;13.610;2023-11-19T04:00:13;9.10;;;4.50;;
58752;SDS011;44525;46.052;13.610;2023-11-19T04:02:40;9.35;;;4.75;;
58752;SDS011;44525;46.052;13.610;2023-11-19T04:05:05;8.75;;;4.55;;
58752;SDS011;44525;46.052;13.610;2023-11-19T04:07:31;8.60;;;4.80;;
58752;SDS011;44525;46.052;13.610;2023-11-19T04:09:57;12.20;;;7.10;;
58752;SDS011;44525;46.052;13.610;2023-11-19T04:12:22;18.17;;;10.13;;
58752;SDS011;44525;46.052;13.610;2023-11-19T04:14:47;12.45;;;7.60;;
58752;SDS011;44525;46.052;13.610;2023-11-19T04:17:12;10.38;;;5.18;;
58752;SDS011;44525;46.052;13.610;2023-11-19T04:19:37;10.00;;;5.33;;
58752;SDS011;44525;46.052;13.610;2023-11-19T04:22:04;8.35;;;4.50;;
58752;SDS011;44525;46.052;13.610;2023-11-19T04:24:29;8.60;;;4.75;;
58752;SDS011;44525;46.052;13.610;2023-11-19T04:26:54;7.10;;;4.32;;
58752;SDS011;44525;46.052;13.610;2023-11-19T04:29:19;9.95;;;4.80;;
58752;SDS011;44525;46.052;13.610;2023-11-19T04:31:45;7.30;;;4.65;;
58752;SDS011;44525;46.052;13.610;2023-11-19T04:34:10;10.55;;;5.28;;
58752;SDS011;44525;46.052;13.610;2023-11-19T04:36:36;6.75;;;4.57;;
58752;SDS011;44525;46.052;13.610;2023-11-19T04:39:02;10.23;;;5.47;;
58752;SDS011;44525;46.052;13.610;2023-11-19T04:41:27;8.88;;;4.88;;
58752;SDS011;44525;46.052;13.610;2023-11-19T04:43:53;8.40;;;4.90;;
58752;SDS011;44525;46.052;13.610;2023-11-19T04:46:18;8.48;;;5.18;;
58752;SDS011;44525;46.052;13.610;2023-11-19T04:48:44;9.68;;;5.03;;
58752;SDS011;44525;46.052;13.610;2023-11-19T04:51:09;7.63;;;4.78;;
58752;SDS011;44525;46.052;13.610;2023-11-19T04:53:34;7.00;;;4.85;;
58752;SDS011;44525;46.052;13.610;2023-11-19T04:56:00;8.15;;;5.75;;
58752;SDS011;44525;46.052;13.610;2023-11-19T04:58:25;8.20;;;4.93;;
58752;SDS011;44525;46.052;13.610;2023-11-19T05:00:50;8.63;;;4.90;;
58752;SDS011;44525;46.052;13.610;2023-11-19T05:03:15;9.63;;;5.43;;
58752;SDS011;44525;46.052;13.610;2023-11-19T05:05:41;7.80;;;4.10;;
58752;SDS011;44525;46.052;13.610;2023-11-19T05:08:06;7.90;;;4.97;;
58752;SDS011;44525;46.052;13.610;2023-11-19T05:10:31;7.78;;;4.43;;
58752;SDS011;44525;46.052;13.610;2023-11-19T05:12:56;8.40;;;4.55;;
58752;SDS011;44525;46.052;13.610;2023-11-19T05:15:22;9.88;;;4.88;;
58752;SDS011;44525;46.052;13.610;2023-11-19T05:17:47;8.75;;;4.80;;
58752;SDS011;44525;46.052;13.610;2023-11-19T05:20:13;7.40;;;4.78;;
58752;SDS011;44525;46.052;13.610;2023-11-19T05:22:41;9.70;;;5.32;;
58752;SDS011;44525;46.052;13.610;2023-11-19T05:25:06;8.43;;;5.45;;
58752;SDS011;44525;46.052;13.610;2023-11-19T05:27:32;7.85;;;5.07;;
58752;SDS011;44525;46.052;13.610;2023-11-19T05:29:57;11.20;;;5.20;;
58752;SDS011;44525;46.052;13.610;2023-11-19T05:32:22;7.60;;;4.88;;
58752;SDS011;44525;46.052;13.610;2023-11-19T05:34:48;7.93;;;5.13;;
58752;SDS011;44525;46.052;13.610;2023-11-19T05:37:13;11.13;;;4.82;;
58752;SDS011;44525;46.052;13.610;2023-11-19T05:39:38;9.73;;;5.28;;
58752;SDS011;44525;46.052;13.610;2023-11-19T05:42:04;14.70;;;6.25;;
58752;SDS011;44525;46.052;13.610;2023-11-19T05:44:30;12.65;;;5.05;;
58752;SDS011;44525;46.052;13.610;2023-11-19T05:46:55;10.00;;;5.15;;
58752;SDS011;44525;46.052;13.610;2023-11-19T05:49:20;11.32;;;5.20;;
58752;SDS011;44525;46.052;13.610;2023-11-19T05:51:45;11.35;;;5.85;;
58752;SDS011;44525;46.052;13.610;2023-11-19T05:54:11;11.27;;;5.55;;
58752;SDS011;44525;46.052;13.610;2023-11-19T05:56:36;17.45;;;8.85;;
58752;SDS011;44525;46.052;13.610;2023-11-19T05:59:02;15.10;;;7.07;;
58752;SDS011;44525;46.052;13.610;2023-11-19T06:01:31;10.07;;;6.15;;
58752;SDS011;44525;46.052;13.610;2023-11-19T06:03:57;12.15;;;6.35;;
58752;SDS011;44525;46.052;13.610;2023-11-19T06:06:22;21.73;;;11.93;;
58752;SDS011;44525;46.052;13.610;2023-11-19T06:08:47;21.80;;;13.10;;
58752;SDS011;44525;46.052;13.610;2023-11-19T06:11:12;25.67;;;12.70;;
58752;SDS011;44525;46.052;13.610;2023-11-19T06:13:43;23.52;;;12.27;;
58752;SDS011;44525;46.052;13.610;2023-11-19T06:16:08;22.23;;;12.00;;
58752;SDS011;44525;46.052;13.610;2023-11-19T06:18:33;25.70;;;12.38;;
58752;SDS011;44525;46.052;13.610;2023-11-19T06:20:59;24.33;;;14.07;;
58752;SDS011;44525;46.052;13.610;2023-11-19T06:23:24;25.35;;;14.27;;
58752;SDS011;44525;46.052;13.610;2023-11-19T06:25:49;24.52;;;15.30;;
58752;SDS011;44525;46.052;13.610;2023-11-19T06:28:14;27.00;;;14.60;;
58752;SDS011;44525;46.052;13.610;2023-11-19T06:30:40;19.67;;;10.10;;
58752;SDS011;44525;46.052;13.610;2023-11-19T06:33:06;19.27;;;10.07;;
58752;SDS011;44525;46.052;13.610;2023-11-19T06:35:32;16.90;;;9.48;;
58752;SDS011;44525;46.052;13.610;2023-11-19T06:38:01;19.42;;;9.20;;
58752;SDS011;44525;46.052;13.610;2023-11-19T06:40:26;16.17;;;8.60;;
58752;SDS011;44525;46.052;13.610;2023-11-19T06:42:52;13.55;;;7.50;;
58752;SDS011;44525;46.052;13.610;2023-11-19T06:45:17;17.05;;;9.80;;
58752;SDS011;44525;46.052;13.610;2023-11-19T06:47:42;20.48;;;11.00;;
58752;SDS011;44525;46.052;13.610;2023-11-19T06:50:08;18.27;;;9.38;;
58752;SDS011;44525;46.052;13.610;2023-11-19T06:52:34;14.50;;;8.13;;
58752;SDS011;44525;46.052;13.610;2023-11-19T06:54:59;17.58;;;10.13;;
58752;SDS011;44525;46.052;13.610;2023-11-19T06:57:25;14.23;;;8.18;;
58752;SDS011;44525;46.052;13.610;2023-11-19T06:59:50;245.27;;;92.72;;
58752;SDS011;44525;46.052;13.610;2023-11-19T07:02:15;555.07;;;235.63;;
58752;SDS011;44525;46.052;13.610;2023-11-19T07:04:40;482.90;;;197.85;;
58752;SDS011;44525;46.052;13.610;2023-11-19T07:07:06;133.10;;;49.72;;
58752;SDS011;44525;46.052;13.610;2023-11-19T07:09:31;96.32;;;35.70;;
58752;SDS011;44525;46.052;13.610;2023-11-19T07:11:56;49.15;;;23.30;;
58752;SDS011;44525;46.052;13.610;2023-11-19T07:14:22;54.65;;;22.35;;
58752;SDS011;44525;46.052;13.610;2023-11-19T07:16:48;32.08;;;15.10;;
58752;SDS011;44525;46.052;13.610;2023-11-19T07:19:15;33.67;;;16.15;;
58752;SDS011;44525;46.052;13.610;2023-11-19T07:21:41;35.60;;;19.73;;
58752;SDS011;44525;46.052;13.610;2023-11-19T07:24:09;33.78;;;16.10;;
58752;SDS011;44525;46.052;13.610;2023-11-19T07:26:34;32.03;;;14.65;;
58752;SDS011;44525;46.052;13.610;2023-11-19T07:28:59;20.95;;;12.32;;
58752;SDS011;44525;46.052;13.610;2023-11-19T07:31:26;25.63;;;11.82;;
58752;SDS011;44525;46.052;13.610;2023-11-19T07:33:52;25.95;;;13.65;;
58752;SDS011;44525;46.052;13.610;2023-11-19T07:36:18;28.95;;;14.98;;
58752;SDS011;44525;46.052;13.610;2023-11-19T07:38:45;30.23;;;16.13;;
58752;SDS011;44525;46.052;13.610;2023-11-19T07:41:10;32.90;;;16.08;;
58752;SDS011;44525;46.052;13.610;2023-11-19T07:43:38;32.15;;;17.60;;
58752;SDS011;44525;46.052;13.610;2023-11-19T07:46:03;30.63;;;16.20;;
58752;SDS011;44525;46.052;13.610;2023-11-19T07:48:29;20.33;;;12.60;;
58752;SDS011;44525;46.052;13.610;2023-11-19T07:50:54;17.75;;;12.43;;
58752;SDS011;44525;46.052;13.610;2023-11-19T07:53:20;28.45;;;17.45;;
58752;SDS011;44525;46.052;13.610;2023-11-19T07:55:45;34.28;;;18.25;;
58752;SDS011;44525;46.052;13.610;2023-11-19T07:58:11;26.05;;;15.90;;
58752;SDS011;44525;46.052;13.610;2023-11-19T08:00:36;29.75;;;16.45;;
58752;SDS011;44525;46.052;13.610;2023-11-19T08:03:02;24.60;;;15.02;;
58752;SDS011;44525;46.052;13.610;2023-11-19T08:05:27;27.13;;;15.52;;
58752;SDS011;44525;46.052;13.610;2023-11-19T08:07:53;18.88;;;12.05;;
58752;SDS011;44525;46.052;13.610;2023-11-19T08:10:18;17.90;;;10.43;;
58752;SDS011;44525;46.052;13.610;2023-11-19T08:12:44;18.25;;;11.15;;
58752;SDS011;44525;46.052;13.610;2023-11-19T08:15:09;17.27;;;10.88;;
58752;SDS011;44525;46.052;13.610;2023-11-19T08:17:34;17.98;;;11.73;;
58752;SDS011;44525;46.052;13.610;2023-11-19T08:20:00;29.40;;;17.02;;
58752;SDS011;44525;46.052;13.610;2023-11-19T08:22:25;21.45;;;12.68;;
58752;SDS011;44525;46.052;13.610;2023-11-19T08:24:50;20.33;;;10.68;;
58752;SDS011;44525;46.052;13.610;2023-11-19T08:27:15;17.13;;;9.82;;
58752;SDS011;44525;46.052;13.610;2023-11-19T08:29:41;18.40;;;10.13;;
58752;SDS011;44525;46.052;13.610;2023-11-19T08:32:06;14.77;;;8.35;;
58752;SDS011;44525;46.052;13.610;2023-11-19T08:34:32;12.07;;;7.05;;
58752;SDS011;44525;46.052;13.610;2023-11-19T08:36:57;8.98;;;5.70;;
58752;SDS011;44525;46.052;13.610;2023-11-19T08:39:22;10.70;;;5.60;;
58752;SDS011;44525;46.052;13.610;2023-11-19T08:41:47;10.27;;;6.20;;
58752;SDS011;44525;46.052;13.610;2023-11-19T08:44:13;8.68;;;5.80;;
58752;SDS011;44525;46.052;13.610;2023-11-19T08:46:38;10.57;;;6.15;;
58752;SDS011;44525;46.052;13.610;2023-11-19T08:49:04;13.30;;;6.82;;
58752;SDS011;44525;46.052;13.610;2023-11-19T08:51:30;10.27;;;5.70;;
58752;SDS011;44525;46.052;13.610;2023-11-19T08:53:55;9.55;;;5.85;;
58752;SDS011;44525;46.052;13.610;2023-11-19T08:56:20;12.30;;;6.10;;
58752;SDS011;44525;46.052;13.610;2023-11-19T08:58:46;7.53;;;5.18;;
58752;SDS011;44525;46.052;13.610;2023-11-19T09:01:11;9.43;;;5.23;;
58752;SDS011;44525;46.052;13.610;2023-11-19T09:03:36;8.70;;;5.13;;
58752;SDS011;44525;46.052;13.610;2023-11-19T09:06:02;10.07;;;5.55;;
58752;SDS011;44525;46.052;13.610;2023-11-19T09:08:27;12.23;;;6.55;;
58752;SDS011;44525;46.052;13.610;2023-11-19T09:10:52;12.43;;;6.20;;
58752;SDS011;44525;46.052;13.610;2023-11-19T09:13:17;12.57;;;6.37;;
58752;SDS011;44525;46.052;13.610;2023-11-19T09:15:42;11.43;;;5.63;;
58752;SDS011;44525;46.052;13.610;2023-11-19T09:18:08;9.70;;;5.77;;
58752;SDS011;44525;46.052;13.610;2023-11-19T09:20:33;7.30;;;5.10;;
58752;SDS011;44525;46.052;13.610;2023-11-19T09:23:03;10.88;;;6.07;;
58752;SDS011;44525;46.052;13.610;2023-11-19T09:25:28;13.35;;;6.63;;
58752;SDS011;44525;46.052;13.610;2023-11-19T09:27:53;9.38;;;5.82;;
58752;SDS011;44525;46.052;13.610;2023-11-19T09:30:19;11.33;;;5.87;;
58752;SDS011;44525;46.052;13.610;2023-11-19T09:32:44;10.20;;;5.80;;
58752;SDS011;44525;46.052;13.610;2023-11-19T09:35:09;13.60;;;6.33;;
58752;SDS011;44525;46.052;13.610;2023-11-19T09:37:38;10.77;;;6.68;;
58752;SDS011;44525;46.052;13.610;2023-11-19T09:40:04;10.52;;;6.40;;
58752;SDS011;44525;46.052;13.610;2023-11-19T09:42:29;8.63;;;5.97;;
58752;SDS011;44525;46.052;13.610;2023-11-19T09:44:56;11.15;;;6.28;;
58752;SDS011;44525;46.052;13.610;2023-11-19T09:47:22;10.82;;;6.55;;
58752;SDS011;44525;46.052;13.610;2023-11-19T09:49:48;14.23;;;7.25;;
58752;SDS011;44525;46.052;13.610;2023-11-19T09:52:14;10.13;;;6.75;;
58752;SDS011;44525;46.052;13.610;2023-11-19T09:54:39;12.23;;;6.93;;
58752;SDS011;44525;46.052;13.610;2023-11-19T09:57:04;10.63;;;5.90;;
58752;SDS011;44525;46.052;13.610;2023-11-19T09:59:32;9.02;;;5.80;;
58752;SDS011;44525;46.052;13.610;2023-11-19T10:01:58;9.70;;;5.70;;
58752;SDS011;44525;46.052;13.610;2023-11-19T10:04:23;13.07;;;6.00;;
58752;SDS011;44525;46.052;13.610;2023-11-19T10:06:50;12.57;;;7.20;;
58752;SDS011;44525;46.052;13.610;2023-11-19T10:09:16;15.85;;;9.82;;
58752;SDS011;44525;46.052;13.610;2023-11-19T10:11:41;87.90;;;49.55;;
58752;SDS011;44525;46.052;13.610;2023-11-19T10:14:06;17.42;;;9.95;;
58752;SDS011;44525;46.052;13.610;2023-11-19T10:16:34;11.65;;;7.65;;
58752;SDS011;44525;46.052;13.610;2023-11-19T10:18:59;13.07;;;7.18;;
58752;SDS011;44525;46.052;13.610;2023-11-19T10:21:24;16.90;;;7.50;;
58752;SDS011;44525;46.052;13.610;2023-11-19T10:23:56;11.30;;;6.82;;
58752;SDS011;44525;46.052;13.610;2023-11-19T10:26:25;12.55;;;6.85;;
58752;SDS011;44525;46.052;13.610;2023-11-19T10:28:51;18.42;;;11.52;;
58752;SDS011;44525;46.052;13.610;2023-11-19T10:31:17;13.18;;;9.05;;
58752;SDS011;44525;46.052;13.610;2023-11-19T10:33:43;10.50;;;6.55;;
58752;SDS011;44525;46.052;13.610;2023-11-19T10:36:10;17.13;;;6.35;;
58752;SDS011;44525;46.052;13.610;2023-11-19T10:38:37;9.68;;;5.57;;
58752;SDS011;44525;46.052;13.610;2023-11-19T10:41:02;8.93;;;6.63;;
58752;SDS011;44525;46.052;13.610;2023-11-19T10:43:29;13.57;;;7.65;;
58752;SDS011;44525;46.052;13.610;2023-11-19T10:45:54;10.00;;;5.88;;
58752;SDS011;44525;46.052;13.610;2023-11-19T10:48:33;10.18;;;5.85;;
58752;SDS011;44525;46.052;13.610;2023-11-19T10:51:00;10.10;;;5.80;;
58752;SDS011;44525;46.052;13.610;2023-11-19T10:53:25;10.07;;;5.50;;
58752;SDS011;44525;46.052;13.610;2023-11-19T10:55:51;8.00;;;5.35;;
58752;SDS011;44525;46.052;13.610;2023-11-19T10:58:17;8.95;;;5.38;;
58752;SDS011;44525;46.052;13.610;2023-11-19T11:03:16;9.82;;;6.57;;
58752;SDS011;44525;46.052;13.610;2023-11-19T11:05:41;9.68;;;4.88;;
58752;SDS011;44525;46.052;13.610;2023-11-19T11:08:07;8.82;;;5.30;;
58752;SDS011;44525;46.052;13.610;2023-11-19T11:10:35;9.57;;;4.78;;
58752;SDS011;44525;46.052;13.610;2023-11-19T11:13:03;9.65;;;6.05;;
58752;SDS011;44525;46.052;13.610;2023-11-19T11:15:28;11.25;;;6.78;;
58752;SDS011;44525;46.052;13.610;2023-11-19T11:17:57;9.05;;;6.30;;
58752;SDS011;44525;46.052;13.610;2023-11-19T11:20:23;8.20;;;4.35;;
58752;SDS011;44525;46.052;13.610;2023-11-19T11:25:26;8.82;;;6.20;;
58752;SDS011;44525;46.052;13.610;2023-11-19T11:30:29;16.43;;;13.10;;
58752;SDS011;44525;46.052;13.610;2023-11-19T11:33:06;11.23;;;6.57;;
58752;SDS011;44525;46.052;13.610;2023-11-19T11:38:22;9.98;;;7.07;;
58752;SDS011;44525;46.052;13.610;2023-11-19T11:43:48;8.88;;;6.32;;
58752;SDS011;44525;46.052;13.610;2023-11-19T11:49:02;9.25;;;5.22;;
58752;SDS011;44525;46.052;13.610;2023-11-19T11:54:08;11.05;;;6.05;;
58752;SDS011;44525;46.052;13.610;2023-11-19T11:56:36;8.60;;;5.32;;
58752;SDS011;44525;46.052;13.610;2023-11-19T11:59:02;7.93;;;4.88;;
58752;SDS011;44525;46.052;13.610;2023-11-19T12:01:27;7.07;;;5.00;;
58752;SDS011;44525;46.052;13.610;2023-11-19T12:03:55;11.25;;;5.57;;
58752;SDS011;44525;46.052;13.610;2023-11-19T12:06:21;33.95;;;19.45;;
58752;SDS011;44525;46.052;13.610;2023-11-19T12:08:46;8.90;;;4.28;;
58752;SDS011;44525;46.052;13.610;2023-11-19T12:11:12;6.25;;;4.13;;
58752;SDS011;44525;46.052;13.610;2023-11-19T12:13:47;27.50;;;13.47;;
58752;SDS011;44525;46.052;13.610;2023-11-19T12:16:17;74.38;;;39.90;;
58752;SDS011;44525;46.052;13.610;2023-11-19T12:18:42;10.68;;;5.70;;
58752;SDS011;44525;46.052;13.610;2023-11-19T12:21:08;12.77;;;7.78;;
58752;SDS011;44525;46.052;13.610;2023-11-19T12:23:35;27.65;;;13.88;;
58752;SDS011;44525;46.052;13.610;2023-11-19T12:26:02;19.20;;;11.18;;
58752;SDS011;44525;46.052;13.610;2023-11-19T12:28:28;9.10;;;5.88;;
58752;SDS011;44525;46.052;13.610;2023-11-19T12:30:54;10.18;;;4.80;;
58752;SDS011;44525;46.052;13.610;2023-11-19T12:33:32;8.73;;;4.30;;
58752;SDS011;44525;46.052;13.610;2023-11-19T12:35:57;7.80;;;4.93;;
58752;SDS011;44525;46.052;13.610;2023-11-19T12:38:23;11.63;;;5.70;;
58752;SDS011;44525;46.052;13.610;2023-11-19T12:41:07;40.15;;;20.88;;
58752;SDS011;44525;46.052;13.610;2023-11-19T12:43:33;56.95;;;30.20;;
58752;SDS011;44525;46.052;13.610;2023-11-19T12:46:03;29.10;;;16.50;;
58752;SDS011;44525;46.052;13.610;2023-11-19T12:48:28;37.97;;;20.70;;
58752;SDS011;44525;46.052;13.610;2023-11-19T12:50:54;68.77;;;31.60;;
58752;SDS011;44525;46.052;13.610;2023-11-19T12:53:22;25.77;;;15.68;;
58752;SDS011;44525;46.052;13.610;2023-11-19T12:55:48;14.60;;;7.85;;
58752;SDS011;44525;46.052;13.610;2023-11-19T12:58:32;12.55;;;7.88;;
58752;SDS011;44525;46.052;13.610;2023-11-19T13:03:32;8.00;;;4.25;;
58752;SDS011;44525;46.052;13.610;2023-11-19T13:08:43;33.75;;;18.50;;
58752;SDS011;44525;46.052;13.610;2023-11-19T13:11:13;179.73;;;89.47;;
58752;SDS011;44525;46.052;13.610;2023-11-19T13:16:23;89.07;;;46.85;;
58752;SDS011;44525;46.052;13.610;2023-11-19T13:18:48;28.90;;;18.05;;
58752;SDS011;44525;46.052;13.610;2023-11-19T13:21:14;13.07;;;9.20;;
58752;SDS011;44525;46.052;13.610;2023-11-19T13:23:39;9.88;;;6.75;;
58752;SDS011;44525;46.052;13.610;2023-11-19T13:26:04;10.37;;;6.17;;
58752;SDS011;44525;46.052;13.610;2023-11-19T13:28:30;17.02;;;10.13;;
58752;SDS011;44525;46.052;13.610;2023-11-19T13:30:55;20.17;;;10.60;;
58752;SDS011;44525;46.052;13.610;2023-11-19T13:33:21;23.25;;;12.20;;
58752;SDS011;44525;46.052;13.610;2023-11-19T13:35:46;25.58;;;14.10;;
58752;SDS011;44525;46.052;13.610;2023-11-19T13:38:11;23.58;;;12.40;;
58752;SDS011;44525;46.052;13.610;2023-11-19T13:40:37;20.73;;;13.67;;
58752;SDS011;44525;46.052;13.610;2023-11-19T13:43:02;16.50;;;10.47;;
58752;SDS011;44525;46.052;13.610;2023-11-19T13:45:27;14.05;;;8.43;;
58752;SDS011;44525;46.052;13.610;2023-11-19T13:47:52;23.27;;;17.23;;
58752;SDS011;44525;46.052;13.610;2023-11-19T13:50:18;11.60;;;7.70;;
58752;SDS011;44525;46.052;13.610;2023-11-19T13:52:43;18.80;;;7.13;;
58752;SDS011;44525;46.052;13.610;2023-11-19T13:55:10;90.85;;;61.00;;
58752;SDS011;44525;46.052;13.610;2023-11-19T13:57:38;33.47;;;21.25;;
58752;SDS011;44525;46.052;13.610;2023-11-19T14:00:04;24.13;;;16.73;;
58752;SDS011;44525;46.052;13.610;2023-11-19T14:02:44;26.92;;;17.63;;
58752;SDS011;44525;46.052;13.610;2023-11-19T14:05:10;16.50;;;10.23;;
58752;SDS011;44525;46.052;13.610;2023-11-19T14:07:38;18.83;;;10.82;;
58752;SDS011;44525;46.052;13.610;2023-11-19T14:10:03;19.83;;;12.07;;
58752;SDS011;44525;46.052;13.610;2023-11-19T14:12:30;27.67;;;15.43;;
58752;SDS011;44525;46.052;13.610;2023-11-19T14:14:55;34.45;;;18.20;;
58752;SDS011;44525;46.052;13.610;2023-11-19T14:17:21;23.27;;;12.93;;
58752;SDS011;44525;46.052;13.610;2023-11-19T14:19:46;34.58;;;17.88;;
58752;SDS011;44525;46.052;13.610;2023-11-19T14:22:12;70.35;;;31.02;;
58752;SDS011;44525;46.052;13.610;2023-11-19T14:24:37;29.45;;;15.02;;
58752;SDS011;44525;46.052;13.610;2023-11-19T14:27:03;45.47;;;22.42;;
58752;SDS011;44525;46.052;13.610;2023-11-19T14:29:28;24.55;;;14.10;;
58752;SDS011;44525;46.052;13.610;2023-11-19T14:31:55;35.38;;;20.30;;
58752;SDS011;44525;46.052;13.610;2023-11-19T14:34:20;40.03;;;30.77;;
58752;SDS011;44525;46.052;13.610;2023-11-19T14:36:45;17.60;;;11.18;;
58752;SDS011;44525;46.052;13.610;2023-11-19T14:39:11;10.18;;;7.35;;
58752;SDS011;44525;46.052;13.610;2023-11-19T14:41:36;12.10;;;8.57;;